METAR Data
IDs: Format: Raw Decoded Include TAF

Data at: 0205 UTC 16 Jan 2019

METAR for:K6B9 (Skaneateles Arpt, NY, US)
Text:K6B9 160155Z AUTO 20004KT 10SM OVC047 M02/M05 A3001 RMK AO2
Temperature: -2.0°C ( 28°F)
Dewpoint: -5.0°C ( 23°F) [RH = 80%]
Pressure (altimeter):30.01 inches Hg (1016.3 mb)
Winds:from the SSW (200 degrees) at 5 MPH (4 knots; 2.1 m/s)
Visibility:10 or more sm (16+ km)
Ceiling:4700 feet AGL
Clouds: overcast cloud deck at 4700 feet AGL
QC Flag:automated observation with no human augmentation
Text:K6B9 160135Z AUTO 21005KT 10SM OVC047 M02/M05 A3002 RMK AO2
Temperature: -2.0°C ( 28°F)
Dewpoint: -5.0°C ( 23°F) [RH = 80%]
Pressure (altimeter):30.02 inches Hg (1016.7 mb)
Winds:from the SSW (210 degrees) at 6 MPH (5 knots; 2.6 m/s)
Visibility:10 or more sm (16+ km)
Ceiling:4700 feet AGL
Clouds: overcast cloud deck at 4700 feet AGL
QC Flag:automated observation with no human augmentation
Text:K6B9 160115Z AUTO 20005KT 10SM SCT030 OVC046 M02/M05 A3002 RMK AO2
Temperature: -2.0°C ( 28°F)
Dewpoint: -5.0°C ( 23°F) [RH = 80%]
Pressure (altimeter):30.02 inches Hg (1016.7 mb)
Winds:from the SSW (200 degrees) at 6 MPH (5 knots; 2.6 m/s)
Visibility:10 or more sm (16+ km)
Ceiling:4600 feet AGL
Clouds: scattered clouds at 3000 feet AGL, overcast cloud deck at 4600 feet AGL
QC Flag:automated observation with no human augmentation
Text:K6B9 160055Z AUTO 21004KT 10SM SCT025 OVC029 M02/M05 A3003 RMK AO2
Temperature: -2.0°C ( 28°F)
Dewpoint: -5.0°C ( 23°F) [RH = 80%]
Pressure (altimeter):30.03 inches Hg (1017.0 mb)
Winds:from the SSW (210 degrees) at 5 MPH (4 knots; 2.1 m/s)
Visibility:10 or more sm (16+ km)
Ceiling:2900 feet AGL
Clouds: scattered clouds at 2500 feet AGL, overcast cloud deck at 2900 feet AGL
QC Flag:automated observation with no human augmentation
Text:K6B9 160035Z AUTO 21006KT 10SM OVC022 M02/M05 A3004 RMK AO2
Temperature: -2.0°C ( 28°F)
Dewpoint: -5.0°C ( 23°F) [RH = 80%]
Pressure (altimeter):30.04 inches Hg (1017.4 mb)
Winds:from the SSW (210 degrees) at 7 MPH (6 knots; 3.1 m/s)
Visibility:10 or more sm (16+ km)
Ceiling:2200 feet AGL
Clouds: overcast cloud deck at 2200 feet AGL
QC Flag:automated observation with no human augmentation
Text:K6B9 160015Z AUTO 22006KT 10SM OVC019 M02/M05 A3004 RMK AO2
Temperature: -2.0°C ( 28°F)
Dewpoint: -5.0°C ( 23°F) [RH = 80%]
Pressure (altimeter):30.04 inches Hg (1017.4 mb)
Winds:from the SW (220 degrees) at 7 MPH (6 knots; 3.1 m/s)
Visibility:10 or more sm (16+ km)
Ceiling:1900 feet AGL
Clouds: overcast cloud deck at 1900 feet AGL
QC Flag:automated observation with no human augmentation
Text:K6B9 152355Z AUTO 21005KT 10SM OVC018 M02/M04 A3004 RMK AO2
Temperature: -2.0°C ( 28°F)
Dewpoint: -4.0°C ( 25°F) [RH = 86%]
Pressure (altimeter):30.04 inches Hg (1017.4 mb)
Winds:from the SSW (210 degrees) at 6 MPH (5 knots; 2.6 m/s)
Visibility:10 or more sm (16+ km)
Ceiling:1800 feet AGL
Clouds: overcast cloud deck at 1800 feet AGL
QC Flag:automated observation with no human augmentation
Text:K6B9 152335Z AUTO 21005KT 10SM OVC017 M02/M04 A3005 RMK AO2
Temperature: -2.0°C ( 28°F)
Dewpoint: -4.0°C ( 25°F) [RH = 86%]
Pressure (altimeter):30.05 inches Hg (1017.7 mb)
Winds:from the SSW (210 degrees) at 6 MPH (5 knots; 2.6 m/s)
Visibility:10 or more sm (16+ km)
Ceiling:1700 feet AGL
Clouds: overcast cloud deck at 1700 feet AGL
QC Flag:automated observation with no human augmentation
Text:K6B9 152315Z AUTO 21003KT 8SM OVC016 M02/M04 A3005 RMK AO2
Temperature: -2.0°C ( 28°F)
Dewpoint: -4.0°C ( 25°F) [RH = 86%]
Pressure (altimeter):30.05 inches Hg (1017.7 mb)
Winds:from the SSW (210 degrees) at 3 MPH (3 knots; 1.5 m/s)
Visibility: 8 sm ( 13 km)
Ceiling:1600 feet AGL
Clouds: overcast cloud deck at 1600 feet AGL
QC Flag:automated observation with no human augmentation
Text:K6B9 152255Z AUTO 24006KT 7SM OVC014 M02/M04 A3005 RMK AO2
Temperature: -2.0°C ( 28°F)
Dewpoint: -4.0°C ( 25°F) [RH = 86%]
Pressure (altimeter):30.05 inches Hg (1017.7 mb)
Winds:from the WSW (240 degrees) at 7 MPH (6 knots; 3.1 m/s)
Visibility: 7 sm ( 11 km)
Ceiling:1400 feet AGL
Clouds: overcast cloud deck at 1400 feet AGL
QC Flag:automated observation with no human augmentation
Text:K6B9 152235Z AUTO 23006KT 5SM BR OVC011 M02/M04 A3005 RMK AO2
Temperature: -2.0°C ( 28°F)
Dewpoint: -4.0°C ( 25°F) [RH = 86%]
Pressure (altimeter):30.05 inches Hg (1017.7 mb)
Winds:from the SW (230 degrees) at 7 MPH (6 knots; 3.1 m/s)
Visibility: 5 sm ( 8 km)
Ceiling:1100 feet AGL
Clouds: overcast cloud deck at 1100 feet AGL
Weather:BR (mist)
QC Flag:automated observation with no human augmentation
Text:K6B9 152215Z AUTO 24005KT 5SM BR OVC011 M02/M04 A3006 RMK AO2
Temperature: -2.0°C ( 28°F)
Dewpoint: -4.0°C ( 25°F) [RH = 86%]
Pressure (altimeter):30.06 inches Hg (1018.0 mb)
Winds:from the WSW (240 degrees) at 6 MPH (5 knots; 2.6 m/s)
Visibility: 5 sm ( 8 km)
Ceiling:1100 feet AGL
Clouds: overcast cloud deck at 1100 feet AGL
Weather:BR (mist)
QC Flag:automated observation with no human augmentation
Text:K6B9 152155Z AUTO 23006G12KT 7SM OVC013 M02/M04 A3006 RMK AO2
Temperature: -2.0°C ( 28°F)
Dewpoint: -4.0°C ( 25°F) [RH = 86%]
Pressure (altimeter):30.06 inches Hg (1018.0 mb)
Winds:from the SW (230 degrees) at 7 MPH (6 knots; 3.1 m/s) gusting to 14 MPH (12 knots; 6.2 m/s)
Visibility: 7 sm ( 11 km)
Ceiling:1300 feet AGL
Clouds: overcast cloud deck at 1300 feet AGL
QC Flag:automated observation with no human augmentation
Text:K6B9 152135Z AUTO 25008KT 8SM OVC015 M02/M04 A3006 RMK AO2
Temperature: -2.0°C ( 28°F)
Dewpoint: -4.0°C ( 25°F) [RH = 86%]
Pressure (altimeter):30.06 inches Hg (1018.0 mb)
Winds:from the WSW (250 degrees) at 9 MPH (8 knots; 4.1 m/s)
Visibility: 8 sm ( 13 km)
Ceiling:1500 feet AGL
Clouds: overcast cloud deck at 1500 feet AGL
QC Flag:automated observation with no human augmentation
Text:K6B9 152115Z AUTO 23006KT 9SM OVC016 M02/M04 A3006 RMK AO2
Temperature: -2.0°C ( 28°F)
Dewpoint: -4.0°C ( 25°F) [RH = 86%]
Pressure (altimeter):30.06 inches Hg (1018.0 mb)
Winds:from the SW (230 degrees) at 7 MPH (6 knots; 3.1 m/s)
Visibility: 9 sm ( 14 km)
Ceiling:1600 feet AGL
Clouds: overcast cloud deck at 1600 feet AGL
QC Flag:automated observation with no human augmentation
Text:K6B9 152055Z AUTO 24005KT 10SM OVC017 M02/M04 A3006 RMK AO2
Temperature: -2.0°C ( 28°F)
Dewpoint: -4.0°C ( 25°F) [RH = 86%]
Pressure (altimeter):30.06 inches Hg (1018.0 mb)
Winds:from the WSW (240 degrees) at 6 MPH (5 knots; 2.6 m/s)
Visibility:10 or more sm (16+ km)
Ceiling:1700 feet AGL
Clouds: overcast cloud deck at 1700 feet AGL
QC Flag:automated observation with no human augmentation
Text:K6B9 152035Z AUTO 23007KT 10SM OVC017 M02/M04 A3006 RMK AO2
Temperature: -2.0°C ( 28°F)
Dewpoint: -4.0°C ( 25°F) [RH = 86%]
Pressure (altimeter):30.06 inches Hg (1018.0 mb)
Winds:from the SW (230 degrees) at 8 MPH (7 knots; 3.6 m/s)
Visibility:10 or more sm (16+ km)
Ceiling:1700 feet AGL
Clouds: overcast cloud deck at 1700 feet AGL
QC Flag:automated observation with no human augmentation
Text:K6B9 152015Z AUTO 22007KT 10SM OVC017 M02/M05 A3007 RMK AO2
Temperature: -2.0°C ( 28°F)
Dewpoint: -5.0°C ( 23°F) [RH = 80%]
Pressure (altimeter):30.07 inches Hg (1018.4 mb)
Winds:from the SW (220 degrees) at 8 MPH (7 knots; 3.6 m/s)
Visibility:10 or more sm (16+ km)
Ceiling:1700 feet AGL
Clouds: overcast cloud deck at 1700 feet AGL
QC Flag:automated observation with no human augmentation
Text:K6B9 151955Z AUTO 24009KT 10SM OVC017 M02/M04 A3007 RMK AO2
Temperature: -2.0°C ( 28°F)
Dewpoint: -4.0°C ( 25°F) [RH = 86%]
Pressure (altimeter):30.07 inches Hg (1018.4 mb)
Winds:from the WSW (240 degrees) at 10 MPH (9 knots; 4.6 m/s)
Visibility:10 or more sm (16+ km)
Ceiling:1700 feet AGL
Clouds: overcast cloud deck at 1700 feet AGL
QC Flag:automated observation with no human augmentation
Text:K6B9 151935Z AUTO 23007G12KT 10SM OVC016 M02/M04 A3006 RMK AO2
Temperature: -2.0°C ( 28°F)
Dewpoint: -4.0°C ( 25°F) [RH = 86%]
Pressure (altimeter):30.06 inches Hg (1018.0 mb)
Winds:from the SW (230 degrees) at 8 MPH (7 knots; 3.6 m/s) gusting to 14 MPH (12 knots; 6.2 m/s)
Visibility:10 or more sm (16+ km)
Ceiling:1600 feet AGL
Clouds: overcast cloud deck at 1600 feet AGL
QC Flag:automated observation with no human augmentation
Text:K6B9 151915Z AUTO 23009KT 9SM OVC015 M02/M04 A3006 RMK AO2
Temperature: -2.0°C ( 28°F)
Dewpoint: -4.0°C ( 25°F) [RH = 86%]
Pressure (altimeter):30.06 inches Hg (1018.0 mb)
Winds:from the SW (230 degrees) at 10 MPH (9 knots; 4.6 m/s)
Visibility: 9 sm ( 14 km)
Ceiling:1500 feet AGL
Clouds: overcast cloud deck at 1500 feet AGL
QC Flag:automated observation with no human augmentation
Text:K6B9 151855Z AUTO 22007KT 7SM OVC013 M02/M04 A3007 RMK AO2
Temperature: -2.0°C ( 28°F)
Dewpoint: -4.0°C ( 25°F) [RH = 86%]
Pressure (altimeter):30.07 inches Hg (1018.4 mb)
Winds:from the SW (220 degrees) at 8 MPH (7 knots; 3.6 m/s)
Visibility: 7 sm ( 11 km)
Ceiling:1300 feet AGL
Clouds: overcast cloud deck at 1300 feet AGL
QC Flag:automated observation with no human augmentation
Text:K6B9 151835Z AUTO 22009KT 9SM OVC014 M02/M04 A3007 RMK AO2
Temperature: -2.0°C ( 28°F)
Dewpoint: -4.0°C ( 25°F) [RH = 86%]
Pressure (altimeter):30.07 inches Hg (1018.4 mb)
Winds:from the SW (220 degrees) at 10 MPH (9 knots; 4.6 m/s)
Visibility: 9 sm ( 14 km)
Ceiling:1400 feet AGL
Clouds: overcast cloud deck at 1400 feet AGL
QC Flag:automated observation with no human augmentation
Text:K6B9 151815Z AUTO 22006G12KT 9SM OVC015 M02/M04 A3007 RMK AO2
Temperature: -2.0°C ( 28°F)
Dewpoint: -4.0°C ( 25°F) [RH = 86%]
Pressure (altimeter):30.07 inches Hg (1018.4 mb)
Winds:from the SW (220 degrees) at 7 MPH (6 knots; 3.1 m/s) gusting to 14 MPH (12 knots; 6.2 m/s)
Visibility: 9 sm ( 14 km)
Ceiling:1500 feet AGL
Clouds: overcast cloud deck at 1500 feet AGL
QC Flag:automated observation with no human augmentation
Text:K6B9 151755Z AUTO 23008KT 9SM OVC015 M02/M05 A3008 RMK AO2
Temperature: -2.0°C ( 28°F)
Dewpoint: -5.0°C ( 23°F) [RH = 80%]
Pressure (altimeter):30.08 inches Hg (1018.7 mb)
Winds:from the SW (230 degrees) at 9 MPH (8 knots; 4.1 m/s)
Visibility: 9 sm ( 14 km)
Ceiling:1500 feet AGL
Clouds: overcast cloud deck at 1500 feet AGL
QC Flag:automated observation with no human augmentation
Text:K6B9 151735Z AUTO 23007KT 210V270 9SM OVC016 M02/M05 A3009 RMK AO2
Temperature: -2.0°C ( 28°F)
Dewpoint: -5.0°C ( 23°F) [RH = 80%]
Pressure (altimeter):30.09 inches Hg (1019.0 mb)
Winds:from the SW (230 degrees) at 8 MPH (7 knots; 3.6 m/s)
Visibility: 9 sm ( 14 km)
Ceiling:1600 feet AGL
Clouds: overcast cloud deck at 1600 feet AGL
QC Flag:automated observation with no human augmentation
Text:K6B9 151715Z AUTO VRB05G10KT 10SM BKN016 OVC022 M02/M05 A3009 RMK AO2
Temperature: -2.0°C ( 28°F)
Dewpoint: -5.0°C ( 23°F) [RH = 80%]
Pressure (altimeter):30.09 inches Hg (1019.0 mb)
Winds:variable direction winds at 6 MPH (5 knots; 2.6 m/s) gusting to 12 MPH (10 knots; 5.1 m/s)
Visibility:10 or more sm (16+ km)
Ceiling:1600 feet AGL
Clouds: broken clouds at 1600 feet AGL, overcast cloud deck at 2200 feet AGL
QC Flag:automated observation with no human augmentation
Text:K6B9 151655Z AUTO 24008KT 10SM FEW016 OVC022 M02/M05 A3010 RMK AO2
Temperature: -2.0°C ( 28°F)
Dewpoint: -5.0°C ( 23°F) [RH = 80%]
Pressure (altimeter):30.10 inches Hg (1019.4 mb)
Winds:from the WSW (240 degrees) at 9 MPH (8 knots; 4.1 m/s)
Visibility:10 or more sm (16+ km)
Ceiling:2200 feet AGL
Clouds: few clouds at 1600 feet AGL, overcast cloud deck at 2200 feet AGL
QC Flag:automated observation with no human augmentation
Text:K6B9 151635Z AUTO 25008KT 10SM OVC022 M02/M05 A3011 RMK AO2
Temperature: -2.0°C ( 28°F)
Dewpoint: -5.0°C ( 23°F) [RH = 80%]
Pressure (altimeter):30.11 inches Hg (1019.7 mb)
Winds:from the WSW (250 degrees) at 9 MPH (8 knots; 4.1 m/s)
Visibility:10 or more sm (16+ km)
Ceiling:2200 feet AGL
Clouds: overcast cloud deck at 2200 feet AGL
QC Flag:automated observation with no human augmentation
Text:K6B9 151615Z AUTO 25007KT 10SM OVC023 M02/M05 A3012 RMK AO2
Temperature: -2.0°C ( 28°F)
Dewpoint: -5.0°C ( 23°F) [RH = 80%]
Pressure (altimeter):30.12 inches Hg (1020.1 mb)
Winds:from the WSW (250 degrees) at 8 MPH (7 knots; 3.6 m/s)
Visibility:10 or more sm (16+ km)
Ceiling:2300 feet AGL
Clouds: overcast cloud deck at 2300 feet AGL
QC Flag:automated observation with no human augmentation
Text:K6B9 151555Z AUTO 25008G14KT 10SM OVC024 M02/M06 A3013 RMK AO2
Temperature: -2.0°C ( 28°F)
Dewpoint: -6.0°C ( 21°F) [RH = 74%]
Pressure (altimeter):30.13 inches Hg (1020.4 mb)
Winds:from the WSW (250 degrees) at 9 MPH (8 knots; 4.1 m/s) gusting to 16 MPH (14 knots; 7.2 m/s)
Visibility:10 or more sm (16+ km)
Ceiling:2400 feet AGL
Clouds: overcast cloud deck at 2400 feet AGL
QC Flag:automated observation with no human augmentation
Text:K6B9 151535Z AUTO 24007KT 10SM OVC025 M02/M06 A3014 RMK AO2
Temperature: -2.0°C ( 28°F)
Dewpoint: -6.0°C ( 21°F) [RH = 74%]
Pressure (altimeter):30.14 inches Hg (1020.7 mb)
Winds:from the WSW (240 degrees) at 8 MPH (7 knots; 3.6 m/s)
Visibility:10 or more sm (16+ km)
Ceiling:2500 feet AGL
Clouds: overcast cloud deck at 2500 feet AGL
QC Flag:automated observation with no human augmentation
Text:K6B9 151515Z AUTO 24008KT 10SM OVC025 M03/M06 A3014 RMK AO2
Temperature: -3.0°C ( 27°F)
Dewpoint: -6.0°C ( 21°F) [RH = 80%]
Pressure (altimeter):30.14 inches Hg (1020.7 mb)
Winds:from the WSW (240 degrees) at 9 MPH (8 knots; 4.1 m/s)
Visibility:10 or more sm (16+ km)
Ceiling:2500 feet AGL
Clouds: overcast cloud deck at 2500 feet AGL
QC Flag:automated observation with no human augmentation
Text:K6B9 151455Z AUTO 24008KT 10SM OVC025 M03/M06 A3014 RMK AO2
Temperature: -3.0°C ( 27°F)
Dewpoint: -6.0°C ( 21°F) [RH = 80%]
Pressure (altimeter):30.14 inches Hg (1020.7 mb)
Winds:from the WSW (240 degrees) at 9 MPH (8 knots; 4.1 m/s)
Visibility:10 or more sm (16+ km)
Ceiling:2500 feet AGL
Clouds: overcast cloud deck at 2500 feet AGL
QC Flag:automated observation with no human augmentation
Text:K6B9 151435Z AUTO 24008KT 10SM OVC027 M03/M06 A3013 RMK AO2
Temperature: -3.0°C ( 27°F)
Dewpoint: -6.0°C ( 21°F) [RH = 80%]
Pressure (altimeter):30.13 inches Hg (1020.4 mb)
Winds:from the WSW (240 degrees) at 9 MPH (8 knots; 4.1 m/s)
Visibility:10 or more sm (16+ km)
Ceiling:2700 feet AGL
Clouds: overcast cloud deck at 2700 feet AGL
QC Flag:automated observation with no human augmentation
Text:K6B9 151415Z AUTO 23006KT 10SM OVC027 M03/M06 A3012 RMK AO2
Temperature: -3.0°C ( 27°F)
Dewpoint: -6.0°C ( 21°F) [RH = 80%]
Pressure (altimeter):30.12 inches Hg (1020.1 mb)
Winds:from the SW (230 degrees) at 7 MPH (6 knots; 3.1 m/s)
Visibility:10 or more sm (16+ km)
Ceiling:2700 feet AGL
Clouds: overcast cloud deck at 2700 feet AGL
QC Flag:automated observation with no human augmentation